createdAt,value
2019-03-20T00:02:14.790Z,60.40
2019-03-20T00:04:49.757Z,61.30
2019-03-20T00:07:11.771Z,61.30
2019-03-20T00:09:39.419Z,61.90
2019-03-20T00:12:06.921Z,61.80
2019-03-20T00:14:34.929Z,61.40
2019-03-20T00:17:04.054Z,61.90
2019-03-20T00:19:31.863Z,62.30
2019-03-20T00:21:59.768Z,62.10
2019-03-20T00:24:27.522Z,61.80
2019-03-20T00:26:54.938Z,61.60
2019-03-20T00:29:24.072Z,61.70
2019-03-20T00:31:51.512Z,61.50
2019-03-20T00:34:19.305Z,61.30
2019-03-20T00:36:47.033Z,61.40
2019-03-20T00:39:14.496Z,61.90
2019-03-20T00:41:42.020Z,62.00
2019-03-20T00:44:09.992Z,62.30
2019-03-20T00:46:38.605Z,61.80
2019-03-20T00:49:06.322Z,62.30
2019-03-20T00:51:34.232Z,61.80
2019-03-20T00:54:02.056Z,61.70
2019-03-20T00:56:29.652Z,61.60
2019-03-20T00:58:57.153Z,62.60
2019-03-20T01:01:24.499Z,62.10
2019-03-20T01:03:52.274Z,62.60
2019-03-20T01:06:19.671Z,62.70
2019-03-20T01:08:47.411Z,62.00
2019-03-20T01:11:15.370Z,62.50
2019-03-20T01:13:42.828Z,62.90
2019-03-20T01:16:10.239Z,62.10
2019-03-20T01:18:37.930Z,62.70
2019-03-20T01:21:05.424Z,62.50
2019-03-20T01:23:33.156Z,62.50
2019-03-20T01:26:01.615Z,62.50
2019-03-20T01:28:29.367Z,62.50
2019-03-20T01:30:57.261Z,62.70
2019-03-20T01:33:24.575Z,62.60
2019-03-20T01:35:52.425Z,62.60
2019-03-20T01:38:20.144Z,63.00
2019-03-20T01:40:47.788Z,63.10
2019-03-20T01:43:15.873Z,62.70
2019-03-20T01:45:43.743Z,63.00
2019-03-20T01:48:11.055Z,63.00
2019-03-20T01:50:38.749Z,63.00
2019-03-20T01:53:06.420Z,63.40
2019-03-20T01:55:34.080Z,63.50
2019-03-20T01:58:01.437Z,63.20
2019-03-20T02:00:29.107Z,63.20
2019-03-20T02:02:56.564Z,63.80
2019-03-20T02:05:34.709Z,63.50
2019-03-20T02:07:53.460Z,63.90
2019-03-20T02:10:21.149Z,64.20
2019-03-20T02:12:48.823Z,64.00
2019-03-20T02:15:16.196Z,64.10
2019-03-20T02:17:43.677Z,65.40
2019-03-20T02:20:13.501Z,65.60
2019-03-20T02:22:40.967Z,65.30
2019-03-20T02:25:09.313Z,65.10
2019-03-20T02:27:36.782Z,65.40
2019-03-20T02:30:05.417Z,65.40
2019-03-20T02:32:33.067Z,65.30
2019-03-20T02:35:00.771Z,64.70
2019-03-20T02:37:28.144Z,64.80
2019-03-20T02:39:56.156Z,65.80
2019-03-20T02:42:23.853Z,65.30
2019-03-20T02:44:51.516Z,64.90
2019-03-20T02:47:19.380Z,65.40
2019-03-20T02:49:47.171Z,66.10
2019-03-20T02:52:15.260Z,65.80
2019-03-20T02:54:42.736Z,65.50
2019-03-20T02:57:10.416Z,64.90
2019-03-20T02:59:38.010Z,65.50
2019-03-20T03:02:05.591Z,65.60
2019-03-20T03:04:33.336Z,65.50
2019-03-20T03:07:00.786Z,65.30
2019-03-20T03:09:28.658Z,65.70
2019-03-20T03:11:55.987Z,65.70
2019-03-20T03:14:24.389Z,65.90
2019-03-20T03:16:51.840Z,65.70
2019-03-20T03:19:19.480Z,66.40
2019-03-20T03:21:47.155Z,66.80
2019-03-20T03:24:14.664Z,66.80
2019-03-20T03:26:42.390Z,66.60
2019-03-20T03:29:10.240Z,66.10
2019-03-20T03:31:37.640Z,65.80
2019-03-20T03:34:05.659Z,66.60
2019-03-20T03:36:33.273Z,66.30
2019-03-20T03:39:00.787Z,65.90
2019-03-20T03:41:29.004Z,66.50
2019-03-20T03:43:56.630Z,66.50
2019-03-20T03:46:24.424Z,66.90
2019-03-20T03:48:52.113Z,67.10
2019-03-20T03:51:19.611Z,67.50
2019-03-20T03:53:47.270Z,67.80
2019-03-20T03:56:14.953Z,67.60
2019-03-20T03:58:42.798Z,67.60
2019-03-20T04:01:23.731Z,67.00
2019-03-20T04:03:51.312Z,67.10
2019-03-20T04:06:19.029Z,67.20
2019-03-20T04:08:46.333Z,66.80
2019-03-20T04:11:13.945Z,67.50
2019-03-20T04:13:42.094Z,67.20
2019-03-20T04:16:09.746Z,66.40
2019-03-20T04:18:37.771Z,66.70
2019-03-20T04:21:05.117Z,66.10
2019-03-20T04:23:33.965Z,66.10
2019-03-20T04:26:01.324Z,66.00
2019-03-20T04:28:28.717Z,66.50
2019-03-20T04:30:56.116Z,67.30
2019-03-20T04:33:23.720Z,67.30
2019-03-20T04:35:51.049Z,66.90
2019-03-20T04:38:18.561Z,66.70
2019-03-20T04:40:59.198Z,67.70
2019-03-20T04:43:27.451Z,67.50
2019-03-20T04:45:55.884Z,67.50
2019-03-20T04:48:23.269Z,67.50
2019-03-20T04:50:50.937Z,66.80
2019-03-20T04:53:18.306Z,66.80
2019-03-20T04:55:45.654Z,67.30
2019-03-20T04:58:14.286Z,67.40
2019-03-20T05:00:42.091Z,67.50
2019-03-20T05:03:09.436Z,67.60
2019-03-20T05:05:37.058Z,67.40
2019-03-20T05:08:04.668Z,66.70
2019-03-20T05:10:32.431Z,66.70
2019-03-20T05:12:59.814Z,66.30
2019-03-20T05:15:27.261Z,66.30
2019-03-20T05:17:55.522Z,66.00
2019-03-20T05:20:22.962Z,66.90
2019-03-20T05:22:50.934Z,67.60
2019-03-20T05:25:21.169Z,68.40
2019-03-20T05:27:48.847Z,69.30
2019-03-20T05:30:16.392Z,70.90
2019-03-20T05:32:43.782Z,70.10
2019-03-20T05:35:11.700Z,69.80
2019-03-20T05:37:39.302Z,69.40
2019-03-20T05:40:08.372Z,69.40
2019-03-20T05:42:35.734Z,69.00
2019-03-20T05:45:03.903Z,68.80
2019-03-20T05:47:31.680Z,69.00
2019-03-20T05:49:59.158Z,68.90
2019-03-20T05:52:26.523Z,68.50
2019-03-20T05:54:55.055Z,68.90
2019-03-20T05:57:22.489Z,69.00
2019-03-20T05:59:49.864Z,68.80
2019-03-20T06:02:17.382Z,68.50
2019-03-20T06:04:45.085Z,68.90
2019-03-20T06:07:21.193Z,69.20
2019-03-20T06:09:42.406Z,68.70
2019-03-20T06:12:09.952Z,69.20
2019-03-20T06:14:37.406Z,69.10
2019-03-20T06:17:05.014Z,69.20
2019-03-20T06:19:32.640Z,69.40
2019-03-20T06:22:00.357Z,69.80
2019-03-20T06:24:27.685Z,69.80
2019-03-20T06:26:55.576Z,70.00
2019-03-20T06:29:22.944Z,70.00
2019-03-20T06:31:51.073Z,70.30
2019-03-20T06:34:18.586Z,69.80
2019-03-20T06:36:46.064Z,69.80
2019-03-20T06:39:13.390Z,70.20
2019-03-20T06:41:40.870Z,70.50
2019-03-20T06:44:08.203Z,71.80
2019-03-20T06:46:35.934Z,73.70
2019-03-20T06:49:03.337Z,73.70
2019-03-20T06:51:30.810Z,73.80
2019-03-20T06:53:58.142Z,74.70
2019-03-20T06:56:25.765Z,74.80
2019-03-20T06:59:48.835Z,75.30
2019-03-20T07:02:17.583Z,76.90
2019-03-20T07:04:54.566Z,77.40
2019-03-20T07:07:43.491Z,75.80
2019-03-20T07:10:21.520Z,74.20
2019-03-20T07:12:49.638Z,74.20
2019-03-20T07:15:17.628Z,74.90
2019-03-20T07:17:45.017Z,75.10
2019-03-20T07:20:13.194Z,75.60
2019-03-20T07:22:41.733Z,75.50
2019-03-20T07:25:09.079Z,75.60
2019-03-20T07:27:36.773Z,75.70
2019-03-20T07:30:04.859Z,76.00
2019-03-20T07:32:32.670Z,75.40
2019-03-20T07:35:00.365Z,76.50
2019-03-20T07:37:28.205Z,76.20
2019-03-20T07:39:56.595Z,76.50
2019-03-20T07:42:36.742Z,77.20
2019-03-20T07:45:05.084Z,76.10
2019-03-20T07:47:33.336Z,77.00
2019-03-20T07:50:00.643Z,76.20
2019-03-20T07:52:28.305Z,77.00
2019-03-20T07:54:55.820Z,76.50
2019-03-20T07:57:23.406Z,76.50
2019-03-20T07:59:50.928Z,75.60
2019-03-20T08:02:18.274Z,75.80
2019-03-20T08:04:46.320Z,75.00
2019-03-20T08:07:13.828Z,75.00
2019-03-20T08:09:41.328Z,74.80
2019-03-20T08:12:09.321Z,75.00
2019-03-20T08:14:37.082Z,75.40
2019-03-20T08:17:04.754Z,75.80
2019-03-20T08:19:32.121Z,75.10
2019-03-20T08:21:59.473Z,74.30
2019-03-20T08:24:27.187Z,75.00
2019-03-20T08:26:54.803Z,77.90
2019-03-20T08:29:22.260Z,75.30
2019-03-20T08:31:49.568Z,74.30
2019-03-20T08:34:16.911Z,74.20
2019-03-20T08:36:44.430Z,73.40
2019-03-20T08:39:12.248Z,73.50
2019-03-20T08:41:40.216Z,75.90
2019-03-20T08:44:07.818Z,72.30
2019-03-20T08:46:35.520Z,72.30
2019-03-20T08:49:02.940Z,72.50
2019-03-20T08:51:31.670Z,73.50
2019-03-20T08:53:59.034Z,74.20
2019-03-20T08:56:26.574Z,75.00
2019-03-20T08:58:54.236Z,73.60
2019-03-20T09:01:28.624Z,71.60
2019-03-20T09:03:51.706Z,73.70
2019-03-20T09:06:19.149Z,73.40
2019-03-20T09:08:46.716Z,73.10
2019-03-20T09:11:14.186Z,72.70
2019-03-20T09:13:41.744Z,71.60
2019-03-20T09:16:09.210Z,70.70
2019-03-20T09:18:37.044Z,70.20
2019-03-20T09:21:04.589Z,69.50
2019-03-20T09:23:32.802Z,69.20
2019-03-20T09:26:00.279Z,69.70
2019-03-20T09:28:28.210Z,66.80
2019-03-20T09:30:55.996Z,65.70
2019-03-20T09:33:25.169Z,65.70
2019-03-20T09:35:52.874Z,66.60
2019-03-20T09:38:21.132Z,66.30
2019-03-20T09:40:48.571Z,63.20
2019-03-20T09:43:15.923Z,65.50
2019-03-20T09:45:43.300Z,63.50
2019-03-20T09:48:11.085Z,62.50
2019-03-20T09:50:38.560Z,62.10
2019-03-20T09:53:06.519Z,63.30
2019-03-20T09:55:33.872Z,63.90
2019-03-20T09:58:11.184Z,62.40
2019-03-20T10:00:31.216Z,63.70
2019-03-20T10:02:58.612Z,61.90
2019-03-20T10:05:26.024Z,62.60
2019-03-20T10:07:53.908Z,61.50
2019-03-20T10:10:21.593Z,62.90
2019-03-20T10:12:49.526Z,62.50
2019-03-20T10:15:17.326Z,63.30
2019-03-20T10:17:44.755Z,65.50
2019-03-20T10:20:13.715Z,62.60
2019-03-20T10:22:41.164Z,61.10
2019-03-20T10:25:08.863Z,61.80
2019-03-20T10:27:37.210Z,62.60
2019-03-20T10:30:07.028Z,59.70
2019-03-20T10:32:34.768Z,60.50
2019-03-20T10:35:02.355Z,60.50
2019-03-20T10:37:30.167Z,58.20
2019-03-20T10:39:57.681Z,59.00
2019-03-20T10:42:25.340Z,55.30
2019-03-20T10:44:52.835Z,56.70
2019-03-20T10:47:21.002Z,59.30
2019-03-20T10:49:48.768Z,59.90
2019-03-20T10:52:16.400Z,60.60
2019-03-20T10:54:44.004Z,57.90
2019-03-20T10:57:11.380Z,58.20
2019-03-20T10:59:39.192Z,59.40
2019-03-20T11:02:06.671Z,59.10
2019-03-20T11:04:34.228Z,55.90
2019-03-20T11:07:01.947Z,57.20
2019-03-20T11:09:29.418Z,55.00
2019-03-20T11:11:56.948Z,58.00
2019-03-20T11:14:25.066Z,57.80
2019-03-20T11:16:52.446Z,59.00
2019-03-20T11:19:20.283Z,54.00
2019-03-20T11:21:48.039Z,53.50
2019-03-20T11:24:15.433Z,54.80
2019-03-20T11:26:43.493Z,54.00
2019-03-20T11:29:11.233Z,52.60
2019-03-20T11:31:39.016Z,52.10
2019-03-20T11:34:06.548Z,52.40
2019-03-20T11:36:34.733Z,50.10
2019-03-20T11:39:07.938Z,50.30
2019-03-20T11:41:35.564Z,47.40
2019-03-20T11:44:03.136Z,45.90
2019-03-20T11:46:30.676Z,46.90
2019-03-20T11:48:59.906Z,47.10
2019-03-20T11:51:27.804Z,45.50
2019-03-20T11:53:55.166Z,48.70
2019-03-20T11:56:22.641Z,48.10
2019-03-20T11:58:50.889Z,46.70
2019-03-20T12:01:18.400Z,46.20
2019-03-20T12:03:45.871Z,46.40
2019-03-20T12:06:13.255Z,46.70
2019-03-20T12:08:41.102Z,45.20
2019-03-20T12:11:08.684Z,47.70
2019-03-20T12:13:46.049Z,45.30
2019-03-20T12:16:13.681Z,47.60
2019-03-20T12:18:41.046Z,44.80
2019-03-20T12:21:08.532Z,42.90
2019-03-20T12:23:36.379Z,45.50
2019-03-20T12:26:04.149Z,44.70
2019-03-20T12:28:31.710Z,45.20
2019-03-20T12:30:59.199Z,44.00
2019-03-20T12:33:27.231Z,44.80
2019-03-20T12:35:54.568Z,42.40
2019-03-20T12:38:21.905Z,42.50
2019-03-20T12:40:49.318Z,44.50
2019-03-20T12:43:16.884Z,44.90
2019-03-20T12:45:44.811Z,44.30
2019-03-20T12:48:12.687Z,46.30
2019-03-20T12:50:40.751Z,44.00
2019-03-20T12:53:08.402Z,45.90
2019-03-20T12:55:36.252Z,45.50
2019-03-20T12:58:03.667Z,42.80
2019-03-20T13:00:31.052Z,41.40
2019-03-20T13:02:59.158Z,44.10
2019-03-20T13:05:26.734Z,43.50
2019-03-20T13:07:54.219Z,43.30
2019-03-20T13:10:21.786Z,44.60
2019-03-20T13:12:49.364Z,42.70
2019-03-20T13:15:18.912Z,40.20
2019-03-20T13:17:46.311Z,42.70
2019-03-20T13:20:13.684Z,42.60
2019-03-20T13:22:41.303Z,42.40
2019-03-20T13:25:09.513Z,41.30
2019-03-20T13:27:36.966Z,41.30
2019-03-20T13:30:08.057Z,41.70
2019-03-20T13:32:35.503Z,41.20
2019-03-20T13:35:03.142Z,41.70
2019-03-20T13:37:30.876Z,40.40
2019-03-20T13:39:58.249Z,42.30
2019-03-20T13:42:25.733Z,42.10
2019-03-20T13:44:53.130Z,43.30
2019-03-20T13:47:20.629Z,39.20
2019-03-20T13:49:48.142Z,39.20
2019-03-20T13:52:18.066Z,40.50
2019-03-20T13:54:45.449Z,38.80
2019-03-20T13:57:12.794Z,39.80
2019-03-20T13:59:40.685Z,39.80
2019-03-20T14:02:08.043Z,39.70
2019-03-20T14:04:36.263Z,41.10
2019-03-20T14:07:04.036Z,40.20
2019-03-20T14:09:31.796Z,38.80
2019-03-20T14:11:59.611Z,40.30
2019-03-20T14:14:27.395Z,38.90
2019-03-20T14:16:55.180Z,39.70
2019-03-20T14:19:23.698Z,42.30
2019-03-20T14:21:51.216Z,38.20
2019-03-20T14:24:19.936Z,39.00
2019-03-20T14:26:51.710Z,38.30
2019-03-20T14:29:19.854Z,37.60
2019-03-20T14:31:48.116Z,37.20
2019-03-20T14:34:15.963Z,38.30
2019-03-20T14:36:43.853Z,39.80
2019-03-20T14:39:11.572Z,37.80
2019-03-20T14:41:39.509Z,38.60
2019-03-20T14:44:07.555Z,40.90
2019-03-20T14:46:35.448Z,41.00
2019-03-20T14:49:03.771Z,39.60
2019-03-20T14:51:32.050Z,37.30
2019-03-20T14:53:59.904Z,36.80
2019-03-20T14:56:27.808Z,37.50
2019-03-20T14:58:55.978Z,35.90
2019-03-20T15:01:23.889Z,37.10
2019-03-20T15:03:52.683Z,36.80
2019-03-20T15:06:20.406Z,36.00
2019-03-20T15:08:48.473Z,38.50
2019-03-20T15:11:16.641Z,35.90
2019-03-20T15:13:44.654Z,35.10
2019-03-20T15:16:12.747Z,37.00
2019-03-20T15:18:40.382Z,37.30
2019-03-20T15:21:08.388Z,36.80
2019-03-20T15:23:36.524Z,37.90
2019-03-20T15:26:04.522Z,38.00
2019-03-20T15:28:32.355Z,37.10
2019-03-20T15:31:00.876Z,37.70
2019-03-20T15:33:29.542Z,35.60
2019-03-20T15:35:58.192Z,34.90
2019-03-20T15:38:26.080Z,35.40
2019-03-20T15:40:56.391Z,34.80
2019-03-20T15:43:23.359Z,35.60
2019-03-20T15:45:50.879Z,36.10
2019-03-20T15:48:18.516Z,36.10
2019-03-20T15:50:46.107Z,36.20
2019-03-20T15:53:13.937Z,36.20
2019-03-20T15:55:41.553Z,36.70
2019-03-20T15:58:09.229Z,36.50
2019-03-20T16:00:36.792Z,36.50
2019-03-20T16:03:07.452Z,35.40
2019-03-20T16:05:35.186Z,35.70
2019-03-20T16:08:02.584Z,34.90
2019-03-20T16:10:30.457Z,36.10
2019-03-20T16:12:58.370Z,35.20
2019-03-20T16:15:26.185Z,35.30
2019-03-20T16:17:54.146Z,36.00
2019-03-20T16:20:22.024Z,37.30
2019-03-20T16:22:49.594Z,36.80
2019-03-20T16:25:17.109Z,36.60
2019-03-20T16:27:45.007Z,36.90
2019-03-20T16:30:15.210Z,36.20
2019-03-20T16:32:42.701Z,36.30
2019-03-20T16:35:10.337Z,37.30
2019-03-20T16:37:38.138Z,37.10
2019-03-20T16:40:08.592Z,38.00
2019-03-20T16:42:36.590Z,35.80
2019-03-20T16:45:04.937Z,35.80
2019-03-20T16:47:32.438Z,36.10
2019-03-20T16:50:00.362Z,36.50
2019-03-20T16:52:28.878Z,35.90
2019-03-20T16:54:56.667Z,35.60
2019-03-20T16:57:24.052Z,36.10
2019-03-20T16:59:51.409Z,35.90
2019-03-20T17:02:18.761Z,36.40
2019-03-20T17:04:46.168Z,36.70
2019-03-20T17:07:14.277Z,37.00
2019-03-20T17:09:41.769Z,36.50
2019-03-20T17:12:09.322Z,37.10
2019-03-20T17:14:37.211Z,38.10
2019-03-20T17:17:04.595Z,38.40
2019-03-20T17:19:32.329Z,37.60
2019-03-20T17:22:00.186Z,38.10
2019-03-20T17:24:27.666Z,39.10
2019-03-20T17:26:55.636Z,38.80
2019-03-20T17:29:23.483Z,40.10
2019-03-20T17:31:52.694Z,39.80
2019-03-20T17:34:20.595Z,40.50
2019-03-20T17:36:48.423Z,40.30
2019-03-20T17:39:16.977Z,40.90
2019-03-20T17:41:44.876Z,39.50
2019-03-20T17:44:12.517Z,39.90
2019-03-20T17:46:39.878Z,38.20
2019-03-20T17:49:07.480Z,38.80
2019-03-20T17:51:35.215Z,39.00
2019-03-20T17:54:02.757Z,40.30
2019-03-20T17:56:30.109Z,39.90
2019-03-20T17:58:58.213Z,41.40
2019-03-20T18:01:25.696Z,41.90
2019-03-20T18:03:53.452Z,41.50
2019-03-20T18:06:20.861Z,39.70
2019-03-20T18:08:48.656Z,41.60
2019-03-20T18:11:16.646Z,41.80
2019-03-20T18:13:44.015Z,42.10
2019-03-20T18:16:11.535Z,41.90
2019-03-20T18:18:39.226Z,41.40
2019-03-20T18:21:07.526Z,40.70
2019-03-20T18:23:35.435Z,42.60
2019-03-20T18:26:02.944Z,43.20
2019-03-20T18:28:30.786Z,43.30
2019-03-20T18:30:58.806Z,42.50
2019-03-20T18:33:26.248Z,42.10
2019-03-20T18:35:53.784Z,41.80
2019-03-20T18:38:21.362Z,41.70
2019-03-20T18:40:49.158Z,41.50
2019-03-20T18:43:17.043Z,43.60
2019-03-20T18:45:44.753Z,46.80
2019-03-20T18:48:12.578Z,47.40
2019-03-20T18:50:40.255Z,46.70
2019-03-20T18:53:07.690Z,47.40
2019-03-20T18:55:35.452Z,47.20
2019-03-20T18:58:03.407Z,46.80
2019-03-20T19:00:30.766Z,44.80
2019-03-20T19:02:58.517Z,43.10
2019-03-20T19:05:59.587Z,43.20
2019-03-20T19:08:27.093Z,42.60
2019-03-20T19:10:54.654Z,42.20
2019-03-20T19:13:24.379Z,42.40
2019-03-20T19:15:52.350Z,43.10
2019-03-20T19:18:20.089Z,43.30
2019-03-20T19:20:47.601Z,43.80
2019-03-20T19:23:15.461Z,44.70
2019-03-20T19:25:42.854Z,45.00
2019-03-20T19:28:10.493Z,44.90
2019-03-20T19:30:37.895Z,44.80
2019-03-20T19:33:05.450Z,44.70
2019-03-20T19:35:33.067Z,44.80
2019-03-20T19:38:00.550Z,44.90
2019-03-20T19:40:29.397Z,45.40
2019-03-20T19:42:56.751Z,45.00
2019-03-20T19:45:24.600Z,45.50
2019-03-20T19:47:52.200Z,46.60
2019-03-20T19:50:19.604Z,47.30
2019-03-20T19:52:47.051Z,46.90
2019-03-20T19:55:14.647Z,46.00
2019-03-20T19:57:42.627Z,46.10
2019-03-20T20:00:12.835Z,46.60
2019-03-20T20:02:40.508Z,46.30
2019-03-20T20:05:15.653Z,45.90
2019-03-20T20:07:37.636Z,46.50
2019-03-20T20:10:05.641Z,46.90
2019-03-20T20:12:33.893Z,46.80
2019-03-20T20:15:01.683Z,47.60
2019-03-20T20:17:30.178Z,47.60
2019-03-20T20:19:57.594Z,49.70
2019-03-20T20:22:25.148Z,50.70
2019-03-20T20:24:52.599Z,50.50
2019-03-20T20:27:20.111Z,49.50
2019-03-20T20:29:47.840Z,49.50
2019-03-20T20:32:15.371Z,48.90
2019-03-20T20:34:42.855Z,48.70
2019-03-20T20:37:10.257Z,48.80
2019-03-20T20:39:37.628Z,49.10
2019-03-20T20:42:05.238Z,49.40
2019-03-20T20:44:33.220Z,49.10
2019-03-20T20:47:00.748Z,49.50
2019-03-20T20:49:28.118Z,49.90
2019-03-20T20:51:55.497Z,49.90
2019-03-20T20:54:22.838Z,50.10
2019-03-20T20:56:50.699Z,49.80
2019-03-20T20:59:18.254Z,49.50
2019-03-20T21:01:45.785Z,48.80
2019-03-20T21:04:13.265Z,49.10
2019-03-20T21:06:40.591Z,48.90
2019-03-20T21:09:08.057Z,48.90
2019-03-20T21:11:35.872Z,49.20
2019-03-20T21:14:03.449Z,49.10
2019-03-20T21:16:32.042Z,49.30
2019-03-20T21:19:34.670Z,49.50
2019-03-20T21:22:41.354Z,49.80
2019-03-20T21:25:09.542Z,50.10
2019-03-20T21:28:29.302Z,50.20
2019-03-20T21:31:19.465Z,50.30
2019-03-20T21:34:53.138Z,50.90
2019-03-20T21:38:02.378Z,51.30
2019-03-20T21:40:33.412Z,52.00
2019-03-20T21:43:54.136Z,51.90
2019-03-20T21:46:58.100Z,51.60
2019-03-20T21:49:26.302Z,51.40
2019-03-20T21:51:54.404Z,51.80
2019-03-20T21:54:58.688Z,51.40
2019-03-20T21:57:44.349Z,50.90
2019-03-20T22:00:44.680Z,50.90
2019-03-20T22:03:12.819Z,50.60
2019-03-20T22:06:44.755Z,49.60
2019-03-20T22:09:51.186Z,49.70
2019-03-20T22:12:23.195Z,50.00
2019-03-20T22:15:05.478Z,50.80
2019-03-20T22:18:10.665Z,51.00
2019-03-20T22:20:52.223Z,51.20
2019-03-20T22:23:46.466Z,50.80
2019-03-20T22:26:48.024Z,50.60
2019-03-20T22:29:23.746Z,53.10
2019-03-20T22:32:51.376Z,54.30
2019-03-20T22:35:43.688Z,54.50
2019-03-20T22:38:32.754Z,53.00
2019-03-20T22:41:52.634Z,52.80
2019-03-20T22:44:22.037Z,52.40
2019-03-20T22:47:46.469Z,52.20
2019-03-20T22:50:34.141Z,52.20
2019-03-20T22:53:31.880Z,51.80
2019-03-20T22:56:26.168Z,52.00
2019-03-20T22:58:55.090Z,51.60
2019-03-20T23:01:35.291Z,51.30
2019-03-20T23:04:08.592Z,51.10
2019-03-20T23:06:36.611Z,51.60
2019-03-20T23:09:06.888Z,52.30
2019-03-20T23:11:36.755Z,52.00
2019-03-20T23:14:04.689Z,52.10
2019-03-20T23:16:33.013Z,52.30
2019-03-20T23:19:01.345Z,52.40
2019-03-20T23:21:29.464Z,52.60
2019-03-20T23:23:57.523Z,53.00
2019-03-20T23:26:25.778Z,53.20
2019-03-20T23:28:53.860Z,53.30
2019-03-20T23:31:22.183Z,53.10
2019-03-20T23:33:50.375Z,53.10
2019-03-20T23:36:18.876Z,52.70
2019-03-20T23:38:46.953Z,53.00
2019-03-20T23:41:15.046Z,53.50
2019-03-20T23:43:52.391Z,53.70
2019-03-20T23:46:13.115Z,54.50
2019-03-20T23:48:46.535Z,54.10
2019-03-20T23:51:16.537Z,54.50
2019-03-20T23:53:47.579Z,55.60
2019-03-20T23:56:15.580Z,55.30
2019-03-20T23:58:43.651Z,55.70
